map of DRO home
DRO - Airport
Location
City:  Durango, Colorado, United States
Name:Durango-La Plata County Airport
ICAO:KDRO
IATA:DRO
FAA LID:DRO

Details
Type:Airport (Part 139 Class I)
Use:Public/Civil
Latitude:3709'06"N (37.151528)
Longitude:10745'14"W (-107.753777)
Datum:WGS 1984
Elevation:6689 ft (2039 m)
Variation:9.18E (WMM2015 magnetic declination)
-0.10 annual change
Runways:1
Longest:9201 × 150 ft (2804 × 45.5 m), paved

Time
Time Zone:UTC-7 (DST-6)
Local Time:

Weather
METAR:KDRO 201353Z AUTO 00000KT 10SM CLR 11/11 A3012 RMK AO2 SLP135 T01110106
TAF:KDRO 201130Z 2012/2112 01003KT P6SM SCT070 BKN080
FM201900 28012KT P6SM FEW250
FM210300 36006KT P6SM SKC

Related Locations
Nearby:
Farthest:RRG: 11120 mi / 17896 km
Plaine Corail [Sir Gatan Duval Airport (Plaine Corail Airport)], Rodrigues Island, MU

Find:

   beyond  
but within

Other Information
Maps:
NOTAMs:
Links:
Sources:

  
  • flag of United States
  • flag of Colorado
  

Sectional Chart

Flight Planning
at skyvector.com

Satellite Image

Google Maps Satellite view

 

Copyright © 2004-2018 Karl L. Swartz. All rights reserved.
The Great Circle Mapper name and logo are trademarks of the Great Circle Mapper.
All other trademarks mentioned herein belong to their respective owners.
Please see credits for attibutions and further copyright information.

  Follow gcmap on Facebook Follow gcmap on Twitter Follow gcmap on Google+ GCmap on LinkedIn

hCard Microformat

Geo Microformat